Time;durP1;ratioP1;P1;durP2;ratioP2;P2;SDS_P1;SDS_P2;PMS_P1;PMS_P2;Temp;Humidity;BMP_temperature;BMP_pressure;BME280_temperature;BME280_humidity;BME280_pressure;Samples;Min_cycle;Max_cycle;Signal;HPM_P1;HPM_P2
2023/04/24 00:00:17;;;;;;;216.37;200.73;;;11.70;12.10;;;;;;5030725;28;20214;-70
2023/04/24 00:02:47;;;;;;;315.83;296.90;;;11.70;12.20;;;;;;5032012;28;20172;-70
2023/04/24 00:05:14;;;;;;;176.43;163.73;;;11.60;12.10;;;;;;5031931;28;20434;-70
2023/04/24 00:07:40;;;;;;;202.80;188.27;;;11.60;12.60;;;;;;5032366;28;20414;-70
2023/04/24 00:10:07;;;;;;;198.93;185.20;;;11.70;12.50;;;;;;5032115;28;20532;-70
2023/04/24 00:12:33;;;;;;;186.60;173.10;;;11.60;12.50;;;;;;5030417;28;20418;-70
2023/04/24 00:14:59;;;;;;;177.87;164.37;;;11.70;12.50;;;;;;5030681;28;20424;-70
2023/04/24 00:17:24;;;;;;;261.97;244.63;;;11.70;12.50;;;;;;5031932;28;20547;-70
2023/04/24 00:19:51;;;;;;;232.33;216.33;;;11.60;12.70;;;;;;5031631;28;20461;-70
2023/04/24 00:22:17;;;;;;;221.30;205.80;;;11.60;12.10;;;;;;5031694;28;20258;-70
2023/04/24 00:24:43;;;;;;;391.13;365.43;;;11.60;12.60;;;;;;5030526;28;20661;-70
2023/04/24 00:27:09;;;;;;;273.90;255.87;;;11.70;11.20;;;;;;5031246;28;20429;-70
2023/04/24 00:29:34;;;;;;;214.20;199.17;;;11.70;12.50;;;;;;5035486;28;20524;-70
2023/04/24 00:32:00;;;;;;;565.17;522.07;;;11.70;12.40;;;;;;5033935;28;20647;-70
2023/04/24 00:34:26;;;;;;;239.30;223.07;;;11.70;12.30;;;;;;5035431;28;20194;-70
2023/04/24 00:36:52;;;;;;;211.57;196.57;;;11.80;13.10;;;;;;5035781;28;20176;-69
2023/04/24 00:39:21;;;;;;;158.77;146.73;;;11.80;12.50;;;;;;5035441;28;20240;-69
2023/04/24 00:41:48;;;;;;;175.57;162.83;;;11.90;12.30;;;;;;5034112;28;20836;-70
2023/04/24 00:44:14;;;;;;;162.73;150.37;;;12.00;12.00;;;;;;5035500;28;20931;-70
2023/04/24 00:46:39;;;;;;;278.13;260.10;;;12.00;12.10;;;;;;5035794;28;20932;-69
2023/04/24 00:49:06;;;;;;;279.93;261.97;;;12.00;12.20;;;;;;5035472;28;20442;-70
2023/04/24 00:51:32;;;;;;;164.77;152.47;;;12.10;11.40;;;;;;5035368;28;20640;-69
2023/04/24 00:53:58;;;;;;;206.60;192.20;;;12.10;11.60;;;;;;5035186;28;20418;-69
2023/04/24 00:56:24;;;;;;;208.17;193.73;;;12.10;11.10;;;;;;5033974;28;20422;-70
2023/04/24 00:58:50;;;;;;;301.37;282.53;;;12.10;11.40;;;;;;5035130;28;20444;-70
2023/04/24 01:01:16;;;;;;;211.27;196.47;;;12.10;11.10;;;;;;5033891;28;20453;-70
2023/04/24 01:03:42;;;;;;;238.07;222.50;;;12.10;11.10;;;;;;5034951;28;20806;-69
2023/04/24 01:06:09;;;;;;;281.73;263.77;;;12.00;11.00;;;;;;5034938;28;20409;-72
2023/04/24 01:08:35;;;;;;;304.83;285.70;;;12.10;11.50;;;;;;5034615;28;20508;-70
2023/04/24 01:11:03;;;;;;;281.40;263.57;;;12.10;11.40;;;;;;5034757;28;20410;-69
2023/04/24 01:13:29;;;;;;;206.83;192.43;;;12.20;11.80;;;;;;5033437;28;20805;-70
2023/04/24 01:15:55;;;;;;;298.70;279.83;;;12.20;12.00;;;;;;5033426;28;20441;-70
2023/04/24 01:18:21;;;;;;;276.40;258.77;;;12.10;13.10;;;;;;5033242;28;20186;-69
2023/04/24 01:20:50;;;;;;;279.20;261.53;;;12.10;14.40;;;;;;5033436;28;20266;-70
2023/04/24 01:23:16;;;;;;;302.30;283.87;;;12.00;14.90;;;;;;5033582;28;20817;-69
2023/04/24 01:25:42;;;;;;;231.50;216.03;;;12.10;15.50;;;;;;5034793;28;20926;-69
2023/04/24 01:28:08;;;;;;;380.73;358.93;;;12.10;16.00;;;;;;5034518;28;20497;-69
2023/04/24 01:30:34;;;;;;;217.80;204.17;;;12.10;16.20;;;;;;5034624;28;20513;-69
2023/04/24 01:33:00;;;;;;;329.97;309.60;;;12.10;16.60;;;;;;5033043;28;20190;-70
2023/04/24 01:35:26;;;;;;;304.87;287.57;;;12.10;17.50;;;;;;5034375;28;20827;-70
2023/04/24 01:37:52;;;;;;;286.10;269.23;;;12.10;17.30;;;;;;5033954;28;20302;-70
2023/04/24 01:40:17;;;;;;;272.00;255.10;;;12.10;17.10;;;;;;5034095;28;20564;-69
2023/04/24 01:42:43;;;;;;;281.10;264.40;;;12.00;17.20;;;;;;5033963;28;20172;-70
2023/04/24 01:45:12;;;;;;;316.93;297.40;;;11.90;17.50;;;;;;5034172;28;20167;-70
2023/04/24 01:47:38;;;;;;;295.07;277.23;;;11.80;18.60;;;;;;5032662;28;20191;-69
2023/04/24 01:50:05;;;;;;;217.83;203.97;;;11.60;19.80;;;;;;5033785;28;20433;-69
2023/04/24 01:52:33;;;;;;;277.83;260.40;;;11.50;20.80;;;;;;5033652;28;20415;-69
2023/04/24 01:55:00;;;;;;;342.50;322.03;;;11.50;21.70;;;;;;5033933;28;20446;-70
2023/04/24 01:57:26;;;;;;;251.40;234.83;;;11.40;22.50;;;;;;5033639;28;20812;-69
2023/04/24 01:59:51;;;;;;;271.57;254.87;;;11.30;23.50;;;;;;5032098;28;20539;-69
2023/04/24 02:02:17;;;;;;;380.23;358.30;;;11.30;23.50;;;;;;5033865;28;20453;-70
2023/04/24 02:04:43;;;;;;;190.93;177.77;;;11.20;23.40;;;;;;5034720;28;20229;-70
2023/04/24 02:07:09;;;;;;;247.87;231.73;;;11.20;23.80;;;;;;5034108;28;20410;-70
2023/04/24 02:09:34;;;;;;;328.87;308.70;;;11.30;23.60;;;;;;5032747;28;20195;-70
2023/04/24 02:12:00;;;;;;;181.77;169.50;;;11.30;23.50;;;;;;5033848;28;20594;-69
2023/04/24 02:14:26;;;;;;;347.53;326.27;;;11.30;24.10;;;;;;5032932;28;20180;-68
2023/04/24 02:16:53;;;;;;;334.97;314.17;;;11.30;23.70;;;;;;5033818;28;20444;-68
2023/04/24 02:19:18;;;;;;;360.43;338.33;;;11.30;24.60;;;;;;5034117;28;20691;-68
2023/04/24 02:21:44;;;;;;;251.17;234.47;;;11.30;24.90;;;;;;5035216;28;20443;-68
2023/04/24 02:24:09;;;;;;;301.27;282.47;;;11.30;25.50;;;;;;5034671;28;20172;-68
2023/04/24 02:26:35;;;;;;;237.43;220.93;;;11.30;25.50;;;;;;5035091;28;20176;-68
2023/04/24 02:29:01;;;;;;;274.33;256.47;;;11.20;26.20;;;;;;5032773;28;20202;-68
2023/04/24 02:31:27;;;;;;;249.00;232.50;;;11.30;26.30;;;;;;5033698;28;20231;-68
2023/04/24 02:33:52;;;;;;;207.47;192.67;;;11.20;27.30;;;;;;5033350;28;20226;-67
2023/04/24 02:36:18;;;;;;;319.00;299.33;;;11.20;27.60;;;;;;5033522;28;20664;-68
2023/04/24 02:38:43;;;;;;;336.17;316.80;;;11.20;27.60;;;;;;5032073;28;20691;-68
2023/04/24 02:41:09;;;;;;;244.77;228.70;;;11.20;27.60;;;;;;5033473;28;20568;-68
2023/04/24 02:43:35;;;;;;;271.53;254.43;;;11.10;28.40;;;;;;5033316;28;20224;-68
2023/04/24 02:46:00;;;;;;;220.73;205.87;;;11.10;29.40;;;;;;5032150;28;20175;-68
2023/04/24 02:48:26;;;;;;;186.70;172.87;;;11.00;30.20;;;;;;5033441;28;20198;-68
2023/04/24 02:50:51;;;;;;;250.57;234.10;;;10.90;31.80;;;;;;5032452;28;20199;-67
2023/04/24 02:53:17;;;;;;;250.43;234.60;;;10.80;31.60;;;;;;5033829;28;20240;-68
2023/04/24 02:55:43;;;;;;;187.77;174.33;;;10.80;32.90;;;;;;5033172;28;20179;-68
2023/04/24 02:58:08;;;;;;;330.40;311.70;;;10.80;33.70;;;;;;5033354;28;20182;-67
2023/04/24 03:00:34;;;;;;;256.37;238.33;;;10.80;33.60;;;;;;5031527;28;20265;-67
2023/04/24 03:03:00;;;;;;;183.10;169.47;;;10.90;33.20;;;;;;5032992;28;20605;-68
2023/04/24 03:05:27;;;;;;;190.83;177.00;;;10.90;32.90;;;;;;5032223;28;20182;-68
2023/04/24 03:07:52;;;;;;;297.53;279.03;;;10.90;32.70;;;;;;5033373;28;20163;-68
2023/04/24 03:10:18;;;;;;;243.70;228.40;;;10.90;31.70;;;;;;5033777;28;20491;-67
2023/04/24 03:12:44;;;;;;;227.53;212.30;;;10.90;31.70;;;;;;5031880;28;20182;-68
2023/04/24 03:15:10;;;;;;;250.60;234.13;;;11.00;32.60;;;;;;5033448;28;20643;-68
2023/04/24 03:17:36;;;;;;;325.20;306.13;;;10.90;31.20;;;;;;5032064;28;20241;-68
2023/04/24 03:20:02;;;;;;;206.97;192.50;;;10.90;31.60;;;;;;5033477;28;20600;-68
2023/04/24 03:22:28;;;;;;;259.67;242.97;;;10.90;31.00;;;;;;5033232;28;20416;-68
2023/04/24 03:24:54;;;;;;;230.93;215.13;;;10.80;32.00;;;;;;5033122;28;20406;-68
2023/04/24 03:27:20;;;;;;;255.00;238.47;;;10.80;31.70;;;;;;5032844;28;20544;-68
2023/04/24 03:29:45;;;;;;;326.83;307.03;;;10.80;33.10;;;;;;5032770;28;20437;-68
2023/04/24 03:32:11;;;;;;;197.73;183.97;;;10.70;33.10;;;;;;5032006;28;20628;-68
2023/04/24 03:34:36;;;;;;;259.40;242.30;;;10.60;34.20;;;;;;5032443;28;20596;-69
2023/04/24 03:37:02;;;;;;;252.90;235.70;;;10.60;33.90;;;;;;5031001;28;20712;-68
2023/04/24 03:39:28;;;;;;;200.30;185.80;;;10.50;35.50;;;;;;5030678;28;20304;-69
2023/04/24 03:41:53;;;;;;;189.07;175.30;;;10.50;34.60;;;;;;5032424;28;20213;-68
2023/04/24 03:44:19;;;;;;;233.17;216.77;;;10.40;35.00;;;;;;5032326;28;20826;-68
2023/04/24 03:46:45;;;;;;;297.63;279.40;;;10.40;35.00;;;;;;5030751;28;20624;-69
2023/04/24 03:49:11;;;;;;;239.67;222.43;;;10.40;35.20;;;;;;5031311;28;20688;-69
2023/04/24 03:51:36;;;;;;;310.23;291.27;;;10.40;33.10;;;;;;5032063;28;20674;-67
2023/04/24 03:54:03;;;;;;;317.33;299.03;;;10.30;33.20;;;;;;5032163;28;20418;-68
2023/04/24 03:56:28;;;;;;;222.00;207.37;;;10.20;34.50;;;;;;5030760;28;20261;-67
2023/04/24 03:58:54;;;;;;;271.80;255.50;;;10.30;34.90;;;;;;5030686;28;20477;-68
2023/04/24 04:01:20;;;;;;;272.27;255.07;;;10.30;34.20;;;;;;5032904;28;20191;-68
2023/04/24 04:03:46;;;;;;;294.03;274.57;;;10.20;36.30;;;;;;5034884;28;20172;-68
2023/04/24 04:06:12;;;;;;;204.13;189.77;;;10.30;34.80;;;;;;5036322;28;20406;-68
2023/04/24 04:08:38;;;;;;;324.77;305.97;;;10.30;36.30;;;;;;5036116;28;20429;-68
2023/04/24 04:11:04;;;;;;;250.67;232.40;;;10.30;35.70;;;;;;5036042;28;20475;-68
2023/04/24 04:13:29;;;;;;;271.30;254.90;;;10.30;35.60;;;;;;5034930;28;20710;-67
2023/04/24 04:15:55;;;;;;;354.53;335.37;;;10.30;35.50;;;;;;5036820;28;20203;-68
2023/04/24 04:18:20;;;;;;;231.93;216.00;;;10.30;36.40;;;;;;5036986;28;20224;-68
2023/04/24 04:20:46;;;;;;;178.30;163.87;;;10.30;37.60;;;;;;5037209;28;20668;-68
2023/04/24 04:23:12;;;;;;;172.00;158.83;;;10.20;38.00;;;;;;5035919;28;20193;-68
2023/04/24 04:25:37;;;;;;;401.00;378.97;;;10.30;39.10;;;;;;5035793;28;20182;-68
2023/04/24 04:28:03;;;;;;;302.20;284.77;;;10.20;38.10;;;;;;5035771;28;20175;-67
2023/04/24 04:30:32;;;;;;;212.13;196.50;;;10.30;38.50;;;;;;5036316;28;20659;-67
2023/04/24 04:32:58;;;;;;;200.43;185.70;;;10.40;38.80;;;;;;5036127;28;20222;-67
2023/04/24 04:35:24;;;;;;;342.77;322.73;;;10.40;39.00;;;;;;5036299;28;20501;-68
2023/04/24 04:37:51;;;;;;;147.30;135.37;;;10.40;38.80;;;;;;5035253;28;20432;-68
2023/04/24 04:40:17;;;;;;;213.53;198.67;;;10.50;38.30;;;;;;5049169;22;21114;-70
2023/04/24 04:42:45;;;;;;;268.67;252.37;;;10.50;39.00;;;;;;5034378;28;20798;-71
2023/04/24 04:45:11;;;;;;;166.60;153.57;;;10.60;38.20;;;;;;5034366;28;20539;-71
2023/04/24 04:47:37;;;;;;;332.07;313.80;;;10.60;38.60;;;;;;5034581;28;20481;-71
2023/04/24 04:50:05;;;;;;;181.80;168.30;;;10.60;37.80;;;;;;5034603;28;20199;-70
2023/04/24 04:52:31;;;;;;;203.80;189.70;;;10.60;38.00;;;;;;5032993;28;20790;-71
2023/04/24 04:54:56;;;;;;;425.37;397.43;;;10.70;37.40;;;;;;5034483;28;20414;-71
2023/04/24 04:57:22;;;;;;;252.37;235.87;;;10.60;36.70;;;;;;5028128;28;20215;-70
2023/04/24 04:59:47;;;;;;;303.23;284.40;;;10.50;36.60;;;;;;5025190;28;20222;-70
2023/04/24 05:02:13;;;;;;;214.17;199.07;;;10.40;38.80;;;;;;5034178;28;20628;-71
2023/04/24 05:04:38;;;;;;;393.97;369.77;;;10.20;42.40;;;;;;5034393;28;20533;-70
2023/04/24 05:07:04;;;;;;;337.50;315.37;;;10.00;41.80;;;;;;5033301;28;20237;-70
2023/04/24 05:09:30;;;;;;;378.53;352.83;;;9.80;43.00;;;;;;5034129;28;20256;-70
2023/04/24 05:11:55;;;;;;;288.30;268.53;;;9.70;45.00;;;;;;5033860;28;20266;-70
2023/04/24 05:14:21;;;;;;;362.20;336.30;;;9.60;47.00;;;;;;5033374;28;20326;-71
2023/04/24 05:16:47;;;;;;;334.70;313.70;;;9.60;48.00;;;;;;5034442;28;20773;-71
2023/04/24 05:19:13;;;;;;;575.13;530.27;;;9.60;47.00;;;;;;5033906;28;20465;-70
2023/04/24 05:21:40;;;;;;;234.23;218.13;;;9.50;43.10;;;;;;5033623;28;20207;-71
2023/04/24 05:24:06;;;;;;;278.50;258.57;;;9.50;43.40;;;;;;5033838;28;20501;-71
2023/04/24 05:26:31;;;;;;;230.07;214.00;;;9.50;39.10;;;;;;5034318;28;20497;-70
2023/04/24 05:28:57;;;;;;;192.43;177.87;;;9.40;41.80;;;;;;5033796;28;20543;-70
2023/04/24 05:31:22;;;;;;;193.00;179.33;;;9.30;40.30;;;;;;5034840;28;20175;-73
2023/04/24 05:33:48;;;;;;;190.40;175.83;;;9.30;37.80;;;;;;5035594;28;20297;-72
2023/04/24 05:36:14;;;;;;;84.43;73.53;;;9.30;38.30;;;;;;5036616;28;20191;-72
2023/04/24 05:38:39;;;;;;;539.00;504.47;;;9.30;38.70;;;;;;5035131;28;20174;-72
2023/04/24 05:41:05;;;;;;;484.57;454.47;;;9.20;38.50;;;;;;5034075;28;20464;-72
2023/04/24 05:43:30;;;;;;;362.50;337.93;;;9.10;40.70;;;;;;5033620;28;20233;-71
2023/04/24 05:45:56;;;;;;;399.53;369.53;;;9.10;40.70;;;;;;5033792;28;20201;-71
2023/04/24 05:48:22;;;;;;;176.00;161.47;;;9.00;39.10;;;;;;5033760;28;20173;-71
2023/04/24 05:50:48;;;;;;;150.93;137.67;;;8.90;34.60;;;;;;5033869;28;20194;-71
2023/04/24 05:53:13;;;;;;;195.93;182.10;;;9.00;37.60;;;;;;5033676;28;20469;-72
2023/04/24 05:55:39;;;;;;;149.40;137.03;;;9.10;38.00;;;;;;5033664;28;20188;-72
2023/04/24 05:58:05;;;;;;;218.50;203.17;;;9.30;35.90;;;;;;5034003;28;20184;-71
2023/04/24 06:00:31;;;;;;;173.97;160.33;;;9.30;35.70;;;;;;5033964;28;20210;-72
2023/04/24 06:02:56;;;;;;;148.17;135.57;;;9.40;34.20;;;;;;5034215;28;20420;-72
2023/04/24 06:05:22;;;;;;;243.63;227.20;;;9.50;33.70;;;;;;5034412;28;20179;-72
2023/04/24 06:07:48;;;;;;;264.03;245.50;;;9.60;32.20;;;;;;5034815;28;20667;-71
2023/04/24 06:10:13;;;;;;;190.90;177.00;;;9.90;30.90;;;;;;5034069;28;20210;-72
2023/04/24 06:12:39;;;;;;;180.87;166.20;;;10.10;29.00;;;;;;5033248;28;20420;-72
2023/04/24 06:15:05;;;;;;;277.93;259.20;;;10.40;27.00;;;;;;5032178;28;20214;-72
2023/04/24 06:17:32;;;;;;;289.93;270.57;;;10.50;25.80;;;;;;5032594;28;20183;-71
2023/04/24 06:19:57;;;;;;;258.03;239.10;;;10.70;25.10;;;;;;5033770;28;20458;-72
2023/04/24 06:22:23;;;;;;;421.43;395.40;;;11.10;23.30;;;;;;5033474;28;20937;-71
2023/04/24 06:24:49;;;;;;;380.90;354.63;;;;;;;;;;5034987;28;20206;-72
2023/04/24 06:27:14;;;;;;;380.93;356.23;;;11.80;20.30;;;;;;5033466;28;20533;-71
2023/04/24 06:29:40;;;;;;;283.80;265.17;;;15.10;10.80;;;;;;5032833;28;20847;-70
2023/04/24 06:32:05;;;;;;;340.53;319.40;;;14.90;9.00;;;;;;5033008;28;20178;-71
2023/04/24 06:34:32;;;;;;;332.97;311.10;;;14.60;8.90;;;;;;5033027;28;20535;-71
2023/04/24 06:36:58;;;;;;;331.93;311.27;;;13.80;10.50;;;;;;5032953;28;20170;-71
2023/04/24 06:39:23;;;;;;;441.03;413.80;;;15.30;10.50;;;;;;5031710;28;20978;-70
2023/04/24 06:41:49;;;;;;;443.10;415.67;;;17.60;4.50;;;;;;5032993;28;20237;-72
2023/04/24 06:44:15;;;;;;;417.63;390.53;;;20.20;2.90;;;;;;5033614;28;20175;-71
2023/04/24 06:46:41;;;;;;;422.30;393.70;;;23.30;1.00;;;;;;5022672;28;20218;-71
2023/04/24 06:49:07;;;;;;;455.50;427.23;;;;;;;;;;5026665;28;20218;-71
2023/04/24 06:51:33;;;;;;;384.00;359.70;;;;;;;;;;5027596;28;20418;-70
2023/04/24 06:53:59;;;;;;;451.47;423.67;;;;;;;;;;5028524;28;20413;-71
2023/04/24 06:56:26;;;;;;;434.00;406.60;;;23.60;1.00;;;;;;5028089;28;20732;-71
2023/04/24 06:58:51;;;;;;;450.73;422.77;;;23.20;1.00;;;;;;5028381;28;20525;-70
2023/04/24 07:01:17;;;;;;;548.53;511.23;;;24.50;1.00;;;;;;5028464;28;20880;-70
2023/04/24 07:03:43;;;;;;;532.43;496.73;;;24.00;1.00;;;;;;5023009;28;20579;-71
2023/04/24 07:06:11;;;;;;;487.97;455.33;;;21.80;1.00;;;;;;5008696;28;20450;-68
2023/04/24 07:08:36;;;;;;;422.97;396.63;;;20.40;1.00;;;;;;5009655;28;20187;-71
2023/04/24 07:11:02;;;;;;;437.50;410.60;;;20.60;1.00;;;;;;5008391;28;20415;-69
2023/04/24 07:13:27;;;;;;;680.37;626.40;;;21.90;1.00;;;;;;5008955;28;20192;-70
2023/04/24 07:15:54;;;;;;;516.90;483.63;;;21.80;1.00;;;;;;5014476;28;20183;-70
2023/04/24 07:18:21;;;;;;;392.73;368.07;;;19.80;1.00;;;;;;5026931;28;20194;-70
2023/04/24 07:20:46;;;;;;;585.13;545.13;;;19.30;1.00;;;;;;5027851;28;20544;-69
2023/04/24 07:23:12;;;;;;;693.30;639.57;;;17.40;1.00;;;;;;5028062;28;20518;-70
2023/04/24 07:25:38;;;;;;;416.03;391.07;;;16.40;1.00;;;;;;5027691;28;20202;-71
2023/04/24 07:28:04;;;;;;;445.90;418.20;;;16.20;1.80;;;;;;5027950;28;20186;-69
2023/04/24 07:30:30;;;;;;;418.60;392.87;;;16.10;1.50;;;;;;5027616;28;20257;-70
2023/04/24 07:32:56;;;;;;;368.63;345.37;;;15.40;3.50;;;;;;5027304;28;20418;-70
2023/04/24 07:35:21;;;;;;;383.90;360.20;;;15.00;4.10;;;;;;5013825;28;20434;-69
2023/04/24 07:37:47;;;;;;;632.07;586.67;;;14.00;6.80;;;;;;5013170;28;20265;-68
2023/04/24 07:40:13;;;;;;;759.53;701.40;;;13.30;9.70;;;;;;5013927;28;20317;-68
2023/04/24 07:42:39;;;;;;;342.13;320.93;;;12.30;13.80;;;;;;5017070;28;20274;-69
2023/04/24 07:45:06;;;;;;;474.80;443.53;;;11.90;16.60;;;;;;5024035;28;20553;-69
2023/04/24 07:47:32;;;;;;;381.47;355.50;;;11.80;18.70;;;;;;5036954;28;20467;-69
2023/04/24 07:49:58;;;;;;;369.27;345.80;;;12.10;18.60;;;;;;5037694;28;20524;-70
2023/04/24 07:52:24;;;;;;;385.03;361.17;;;12.60;18.20;;;;;;5036974;28;20485;-70
2023/04/24 07:54:50;;;;;;;424.90;397.83;;;13.20;16.80;;;;;;5037718;28;20444;-69
2023/04/24 07:57:16;;;;;;;398.83;372.67;;;13.70;13.40;;;;;;5037756;28;20425;-70
2023/04/24 07:59:42;;;;;;;459.97;430.57;;;13.50;11.60;;;;;;5048926;28;20199;-70
2023/04/24 08:02:07;;;;;;;191.90;176.90;;;13.00;11.70;;;;;;5036687;28;20433;-70
2023/04/24 08:04:33;;;;;;;296.37;276.80;;;12.80;8.80;;;;;;5037762;28;20172;-70
2023/04/24 08:06:59;;;;;;;283.77;265.17;;;12.90;11.50;;;;;;5037237;28;20190;-69
2023/04/24 08:09:24;;;;;;;330.53;309.37;;;12.90;11.70;;;;;;5037909;28;20225;-70
2023/04/24 08:11:50;;;;;;;220.80;205.33;;;13.30;12.80;;;;;;5036789;28;20234;-69
2023/04/24 08:14:15;;;;;;;284.07;265.73;;;13.50;12.10;;;;;;5037705;28;20179;-70
2023/04/24 08:16:41;;;;;;;132.93;121.13;;;13.50;8.70;;;;;;5038144;28;20195;-70
2023/04/24 08:19:07;;;;;;;316.50;296.43;;;13.80;9.70;;;;;;5037430;28;20957;-70
2023/04/24 08:21:33;;;;;;;241.10;224.23;;;13.40;8.70;;;;;;5036859;28;20231;-70
2023/04/24 08:23:58;;;;;;;368.83;345.63;;;14.60;8.40;;;;;;5037566;28;20179;-70
2023/04/24 08:26:24;;;;;;;381.00;357.87;;;17.10;3.30;;;;;;5037727;28;20414;-71
2023/04/24 08:28:50;;;;;;;514.07;478.33;;;19.10;1.00;;;;;;5035917;28;20185;-70
2023/04/24 08:31:15;;;;;;;352.17;329.63;;;18.00;1.00;;;;;;5037266;28;20191;-70
2023/04/24 08:33:41;;;;;;;600.70;549.67;;;15.90;1.00;;;;;;5036699;28;20179;-70
2023/04/24 08:36:07;;;;;;;572.97;523.10;;;14.30;1.00;;;;;;5037550;28;20181;-69
2023/04/24 08:38:33;;;;;;;301.97;282.10;;;13.20;1.20;;;;;;5037268;28;20197;-69
2023/04/24 08:41:00;;;;;;;535.27;496.87;;;13.00;2.90;;;;;;5036260;28;20474;-70
2023/04/24 08:43:26;;;;;;;381.13;355.20;;;12.60;3.70;;;;;;5036672;28;20464;-69
2023/04/24 08:45:55;;;;;;;333.63;313.30;;;12.20;3.60;;;;;;5037390;28;20421;-69
2023/04/24 08:48:22;;;;;;;476.90;439.40;;;12.30;4.20;;;;;;5034785;28;20437;-69
2023/04/24 08:50:50;;;;;;;802.40;719.47;;;12.30;4.90;;;;;;5033968;28;20528;-70
2023/04/24 08:53:16;;;;;;;531.20;490.27;;;11.90;4.50;;;;;;5033660;28;20429;-69
2023/04/24 08:55:43;;;;;;;269.33;246.30;;;11.70;5.00;;;;;;5034004;28;20430;-69
2023/04/24 08:58:09;;;;;;;583.10;528.67;;;11.70;5.70;;;;;;5033787;28;20422;-69
2023/04/24 09:00:34;;;;;;;348.80;326.10;;;11.60;3.30;;;;;;5035109;28;20603;-70
2023/04/24 09:03:01;;;;;;;390.77;360.07;;;11.80;4.10;;;;;;5033378;28;20202;-70
2023/04/24 09:05:27;;;;;;;558.43;512.73;;;12.10;3.60;;;;;;5034035;28;20176;-69
2023/04/24 09:07:56;;;;;;;333.17;311.77;;;12.10;2.10;;;;;;5034240;28;20446;-70
2023/04/24 09:10:23;;;;;;;366.47;341.33;;;12.10;2.50;;;;;;5033411;28;20438;-70
2023/04/24 09:12:51;;;;;;;262.60;244.83;;;12.20;2.20;;;;;;5031611;28;20441;-71
2023/04/24 09:15:20;;;;;;;253.10;231.83;;;12.40;2.30;;;;;;5015946;28;20766;-71
2023/04/24 09:17:46;;;;;;;240.93;225.07;;;12.50;2.40;;;;;;5011289;28;20938;-72
2023/04/24 09:20:12;;;;;;;222.93;202.90;;;12.60;2.50;;;;;;5010459;28;20473;-73
2023/04/24 09:22:38;;;;;;;338.60;316.73;;;12.60;2.50;;;;;;5010550;28;20426;-70
2023/04/24 09:25:06;;;;;;;441.03;409.60;;;12.60;2.50;;;;;;5010907;28;20191;-71
2023/04/24 09:27:33;;;;;;;250.53;233.50;;;12.40;2.30;;;;;;5025565;28;20426;-71
2023/04/24 09:29:59;;;;;;;341.33;320.80;;;12.40;1.40;;;;;;5029659;28;20442;-71
2023/04/24 09:32:25;;;;;;;341.43;317.43;;;12.50;2.40;;;;;;5030764;28;20428;-71
2023/04/24 09:35:12;;;;;;;759.53;667.70;;;12.60;1.00;;;;;;5030431;28;20971;-74
2023/04/24 09:37:39;;;;;;;382.50;353.40;;;12.40;1.00;;;;;;5030279;28;20789;-71
2023/04/24 09:40:17;;;;;;;267.93;250.10;;;12.30;2.10;;;;;;5030936;28;20481;-69
2023/04/24 09:42:51;;;;;;;408.73;380.67;;;12.30;2.10;;;;;;5033219;28;20422;-69
2023/04/24 09:45:17;;;;;;;691.83;628.97;;;12.60;2.30;;;;;;5033535;28;20426;-69
2023/04/24 09:47:43;;;;;;;274.40;256.03;;;;;;;;;;5027435;28;20432;-69
2023/04/24 09:50:12;;;;;;;364.57;340.43;;;;;;;;;;5013614;28;20208;-69
2023/04/24 09:52:42;;;;;;;344.27;320.93;;;;;;;;;;5013263;28;20415;-69
2023/04/24 09:55:11;;;;;;;312.30;293.10;;;;;;;;;;5013665;28;20440;-70
2023/04/24 09:57:47;;;;;;;542.63;501.30;;;;;;;;;;5013481;28;20990;-69
2023/04/24 10:00:13;;;;;;;268.80;250.40;;;;;;;;;;5013089;28;20501;-70
2023/04/24 10:02:39;;;;;;;438.60;406.83;;;12.30;2.30;;;;;;5012040;28;20425;-69
2023/04/24 10:05:05;;;;;;;237.40;221.20;;;13.10;1.00;;;;;;5013804;28;20431;-69
2023/04/24 10:07:32;;;;;;;496.83;460.03;;;13.40;1.00;;;;;;5014900;28;20180;-70
2023/04/24 10:09:59;;;;;;;404.80;376.20;;;13.50;1.00;;;;;;5032934;28;20441;-70
2023/04/24 10:12:26;;;;;;;370.13;345.33;;;13.60;1.40;;;;;;5033043;28;20824;-69
2023/04/24 10:14:52;;;;;;;478.53;442.97;;;14.00;1.00;;;;;;5033594;28;20812;-69
2023/04/24 10:17:20;;;;;;;345.90;324.60;;;13.90;1.00;;;;;;5033055;28;20483;-70
2023/04/24 10:19:47;;;;;;;370.47;344.27;;;13.60;1.00;;;;;;5033137;28;20443;-70
2023/04/24 10:22:15;;;;;;;349.13;326.80;;;13.30;1.10;;;;;;5032432;28;20511;-70
2023/04/24 10:24:41;;;;;;;360.83;336.57;;;13.10;1.30;;;;;;5032769;28;20797;-70
2023/04/24 10:27:09;;;;;;;398.90;372.77;;;13.50;1.10;;;;;;5033077;28;20421;-69
2023/04/24 10:29:35;;;;;;;394.10;366.73;;;13.60;1.00;;;;;;5032753;28;20189;-69
2023/04/24 10:32:01;;;;;;;965.93;740.87;;;13.90;1.00;;;;;;5032524;28;20427;-69
2023/04/24 10:34:28;;;;;;;392.23;364.37;;;;;;;;;;5025611;28;20986;-70
2023/04/24 10:36:56;;;;;;;211.80;196.83;;;;;;;;;;5022108;28;20548;-70
2023/04/24 10:39:22;;;;;;;326.83;305.10;;;;;;;;;;5045343;22;20468;-69
2023/04/24 10:41:49;;;;;;;417.83;386.93;;;;;;;;;;5013094;28;20961;-69
2023/04/24 10:44:16;;;;;;;227.00;212.30;;;;;;;;;;5014078;28;20412;-69
2023/04/24 10:46:53;;;;;;;340.70;316.17;;;;;;;;;;5014302;28;20414;-69
2023/04/24 10:49:28;;;;;;;418.80;391.77;;;;;;;;;;5014495;28;20435;-68
2023/04/24 10:51:54;;;;;;;287.07;268.47;;;;;;;;;;5013655;28;20451;-68
2023/04/24 10:54:29;;;;;;;422.83;395.93;;;13.50;1.00;;;;;;5014405;28;20923;-70
2023/04/24 10:57:14;;;;;;;415.53;385.33;;;;;;;;;;5013321;28;20422;-70
2023/04/24 10:59:40;;;;;;;417.60;390.17;;;13.80;1.00;;;;;;4993134;28;20843;-69
2023/04/24 11:02:08;;;;;;;435.20;404.17;;;13.20;1.00;;;;;;5001959;28;20499;-69
2023/04/24 11:04:35;;;;;;;464.53;430.17;;;13.10;10.50;;;;;;4995290;28;20903;-70
2023/04/24 11:07:00;;;;;;;699.40;630.97;;;13.10;9.30;;;;;;5012691;28;20415;-70
2023/04/24 11:09:28;;;;;;;316.93;297.20;;;13.20;9.40;;;;;;4995345;28;20500;-70
2023/04/24 11:12:03;;;;;;;465.17;430.13;;;;;;;;;;5011887;28;20199;-70
2023/04/24 11:14:29;;;;;;;474.87;442.10;;;12.70;9.10;;;;;;5012541;28;20423;-70
2023/04/24 11:16:55;;;;;;;297.60;278.97;;;12.60;7.50;;;;;;5012581;28;20967;-70
2023/04/24 11:19:23;;;;;;;364.53;341.47;;;13.00;7.30;;;;;;5012287;28;20665;-70
2023/04/24 11:22:04;;;;;;;392.07;364.43;;;13.30;8.50;;;;;;5004313;28;20557;-71
2023/04/24 11:24:37;;;;;;;346.37;323.37;;;13.70;1.00;;;;;;5002438;28;20445;-70
2023/04/24 11:27:03;;;;;;;493.03;453.33;;;13.70;1.00;;;;;;4993750;28;20459;-70
2023/04/24 11:29:45;;;;;;;334.60;313.63;;;13.40;1.00;;;;;;5012402;28;20436;-70
2023/04/24 11:32:19;;;;;;;507.77;465.63;;;13.80;1.00;;;;;;4994470;28;20423;-68
2023/04/24 11:34:47;;;;;;;303.63;283.57;;;13.80;1.00;;;;;;5011776;28;20425;-69
2023/04/24 11:37:13;;;;;;;424.67;395.47;;;14.00;1.00;;;;;;5005110;28;20508;-70
2023/04/24 11:39:38;;;;;;;272.10;254.53;;;14.10;1.00;;;;;;5000443;28;20592;-70
2023/04/24 11:42:06;;;;;;;402.73;376.60;;;14.80;1.00;;;;;;5000235;28;20266;-70
2023/04/24 11:44:33;;;;;;;307.70;288.63;;;14.40;1.00;;;;;;5005187;28;20276;-70
2023/04/24 11:46:58;;;;;;;357.97;334.77;;;14.20;1.00;;;;;;4994604;28;20420;-71
2023/04/24 11:49:24;;;;;;;400.87;373.27;;;14.10;1.00;;;;;;5011494;28;20452;-69
2023/04/24 11:51:49;;;;;;;246.77;230.63;;;13.50;1.00;;;;;;4976209;28;20273;-70
2023/04/24 11:54:15;;;;;;;390.17;363.20;;;13.20;1.00;;;;;;4991887;28;20183;-71
2023/04/24 11:56:46;;;;;;;320.43;300.43;;;13.20;1.00;;;;;;4991702;28;20633;-70
2023/04/24 11:59:12;;;;;;;455.10;420.93;;;13.40;1.00;;;;;;4992051;28;20554;-69
2023/04/24 12:01:46;;;;;;;363.33;339.00;;;13.20;1.00;;;;;;4990608;28;20476;-70
2023/04/24 12:04:13;;;;;;;283.13;264.50;;;13.40;1.00;;;;;;4974628;28;20229;-69
2023/04/24 12:06:38;;;;;;;257.27;240.90;;;13.50;1.00;;;;;;4992140;28;20420;-68
2023/04/24 12:09:04;;;;;;;524.47;486.43;;;13.70;1.00;;;;;;4991751;28;20509;-68
2023/04/24 12:11:30;;;;;;;353.87;329.70;;;13.60;1.00;;;;;;4992100;28;20236;-68
2023/04/24 12:13:56;;;;;;;339.17;315.40;;;13.40;1.00;;;;;;4975034;28;20235;-68